createdAt,value
2019-03-20T00:00:28.699Z,10.70
2019-03-20T00:01:28.681Z,11.40
2019-03-20T00:02:28.609Z,11.40
2019-03-20T00:03:28.563Z,11.40
2019-03-20T00:04:28.519Z,11.90
2019-03-20T00:05:28.471Z,12.10
2019-03-20T00:06:28.421Z,12.30
2019-03-20T00:07:28.399Z,11.80
2019-03-20T00:08:28.333Z,12.10
2019-03-20T00:09:28.284Z,11.70
2019-03-20T00:10:28.267Z,10.30
2019-03-20T00:11:28.196Z,11.80
2019-03-20T00:12:28.147Z,10.40
2019-03-20T00:13:28.109Z,11.00
2019-03-20T00:14:28.056Z,10.20
2019-03-20T00:15:28.037Z,9.90
2019-03-20T00:16:27.963Z,10.10
2019-03-20T00:17:27.922Z,10.60
2019-03-20T00:18:27.898Z,10.30
2019-03-20T00:19:36.946Z,10.10
2019-03-20T00:20:27.815Z,10.30
2019-03-20T00:21:27.741Z,10.30
2019-03-20T00:22:27.689Z,9.70
2019-03-20T00:23:27.645Z,9.50
2019-03-20T00:24:27.600Z,9.70
2019-03-20T00:25:27.595Z,9.50
2019-03-20T00:26:27.513Z,9.10
2019-03-20T00:27:27.465Z,9.50
2019-03-20T00:28:27.417Z,9.10
2019-03-20T00:29:27.401Z,9.00
2019-03-20T00:30:27.327Z,8.90
2019-03-20T00:31:27.285Z,9.30
2019-03-20T00:32:27.250Z,9.40
2019-03-20T00:33:27.210Z,9.10
2019-03-20T00:34:27.146Z,8.70
2019-03-20T00:35:27.126Z,9.00
2019-03-20T00:36:27.054Z,8.90
2019-03-20T00:37:27.024Z,9.50
2019-03-20T00:38:26.965Z,9.20
2019-03-20T00:39:26.949Z,9.20
2019-03-20T00:40:26.880Z,9.80
2019-03-20T00:41:26.830Z,9.30
2019-03-20T00:42:26.790Z,9.30
2019-03-20T00:43:26.734Z,9.30
2019-03-20T00:44:26.718Z,9.50
2019-03-20T00:45:26.642Z,9.20
2019-03-20T00:46:26.612Z,9.70
2019-03-20T00:47:26.556Z,9.40
2019-03-20T00:48:26.526Z,9.40
2019-03-20T00:49:26.495Z,10.10
2019-03-20T00:50:26.439Z,10.20
2019-03-20T00:51:26.380Z,9.50
2019-03-20T00:52:26.343Z,9.50
2019-03-20T00:53:26.297Z,9.30
2019-03-20T00:54:26.271Z,9.30
2019-03-20T00:55:26.193Z,9.40
2019-03-20T00:56:26.150Z,9.20
2019-03-20T00:57:26.134Z,8.80
2019-03-20T00:58:26.066Z,9.70
2019-03-20T00:59:26.028Z,9.20
2019-03-20T01:00:25.975Z,9.20
2019-03-20T01:01:25.944Z,9.00
2019-03-20T01:02:25.887Z,8.50
2019-03-20T01:03:25.846Z,9.30
2019-03-20T01:04:25.817Z,9.00
2019-03-20T01:05:25.738Z,9.10
2019-03-20T01:06:25.717Z,8.70
2019-03-20T01:07:25.674Z,9.40
2019-03-20T01:08:25.643Z,9.70
2019-03-20T01:09:25.593Z,9.70
2019-03-20T01:10:25.526Z,9.20
2019-03-20T01:11:25.476Z,9.40
2019-03-20T01:12:25.441Z,9.30
2019-03-20T01:13:25.418Z,10.00
2019-03-20T01:14:25.351Z,9.30
2019-03-20T01:15:25.299Z,9.60
2019-03-20T01:16:25.253Z,9.30
2019-03-20T01:17:25.201Z,9.20
2019-03-20T01:18:25.177Z,9.70
2019-03-20T01:19:25.114Z,9.90
2019-03-20T01:20:25.072Z,9.10
2019-03-20T01:21:25.025Z,9.30
2019-03-20T01:22:24.975Z,9.50
2019-03-20T01:23:24.965Z,9.90
2019-03-20T01:24:24.878Z,9.60
2019-03-20T01:25:24.842Z,9.70
2019-03-20T01:26:24.810Z,9.50
2019-03-20T01:27:24.757Z,9.60
2019-03-20T01:28:24.714Z,9.70
2019-03-20T01:29:24.693Z,9.20
2019-03-20T01:30:24.623Z,9.40
2019-03-20T01:31:24.571Z,9.20
2019-03-20T01:32:24.525Z,9.40
2019-03-20T01:33:24.493Z,9.30
2019-03-20T01:34:24.451Z,9.50
2019-03-20T01:35:24.409Z,9.60
2019-03-20T01:36:24.345Z,9.80
2019-03-20T01:37:24.299Z,9.00
2019-03-20T01:38:24.275Z,9.80
2019-03-20T01:39:24.234Z,8.90
2019-03-20T01:40:24.159Z,9.40
2019-03-20T01:41:24.120Z,9.00
2019-03-20T01:42:24.074Z,9.10
2019-03-20T01:43:24.025Z,9.40
2019-03-20T01:44:23.978Z,9.10
2019-03-20T01:45:23.968Z,9.50
2019-03-20T01:46:23.917Z,9.80
2019-03-20T01:47:23.842Z,9.50
2019-03-20T01:48:23.815Z,9.10
2019-03-20T01:49:23.747Z,8.80
2019-03-20T01:50:23.737Z,9.00
2019-03-20T01:51:23.658Z,9.20
2019-03-20T01:52:23.620Z,8.90
2019-03-20T01:53:23.568Z,8.90
2019-03-20T01:54:23.532Z,9.00
2019-03-20T01:55:23.483Z,9.30
2019-03-20T01:56:23.470Z,9.40
2019-03-20T01:57:23.398Z,9.10
2019-03-20T01:58:23.386Z,9.40
2019-03-20T01:59:23.304Z,9.20
2019-03-20T02:00:23.277Z,9.40
2019-03-20T02:01:23.268Z,9.70
2019-03-20T02:02:23.186Z,9.50
2019-03-20T02:03:23.117Z,9.40
2019-03-20T02:04:23.069Z,9.60
2019-03-20T02:05:23.031Z,9.50
2019-03-20T02:06:22.990Z,9.20
2019-03-20T02:07:22.981Z,9.30
2019-03-20T02:08:22.918Z,9.40
2019-03-20T02:09:22.849Z,9.30
2019-03-20T02:10:22.807Z,8.80
2019-03-20T02:11:22.792Z,9.10
2019-03-20T02:12:22.743Z,9.10
2019-03-20T02:13:22.668Z,8.90
2019-03-20T02:14:22.608Z,9.20
2019-03-20T02:15:22.567Z,8.90
2019-03-20T02:16:22.517Z,9.50
2019-03-20T02:17:22.505Z,9.00
2019-03-20T02:18:22.435Z,8.90
2019-03-20T02:19:22.404Z,9.20
2019-03-20T02:20:22.345Z,8.90
2019-03-20T02:21:22.304Z,9.30
2019-03-20T02:22:22.280Z,9.50
2019-03-20T02:23:22.204Z,9.00
2019-03-20T02:24:22.163Z,8.90
2019-03-20T02:25:22.134Z,9.10
2019-03-20T02:26:22.069Z,8.80
2019-03-20T02:27:22.058Z,9.40
2019-03-20T02:28:21.984Z,9.50
2019-03-20T02:29:21.939Z,9.40
2019-03-20T02:30:21.895Z,8.90
2019-03-20T02:31:21.862Z,9.40
2019-03-20T02:32:21.824Z,9.30
2019-03-20T02:33:21.805Z,9.80
2019-03-20T02:34:21.722Z,9.10
2019-03-20T02:35:21.680Z,9.20
2019-03-20T02:36:21.646Z,9.70
2019-03-20T02:37:21.598Z,9.70
2019-03-20T02:38:21.561Z,9.70
2019-03-20T02:39:21.495Z,9.70
2019-03-20T02:40:21.465Z,9.50
2019-03-20T02:41:21.385Z,10.00
2019-03-20T02:42:21.360Z,9.00
2019-03-20T02:43:21.331Z,9.80
2019-03-20T02:44:21.260Z,10.10
2019-03-20T02:45:21.202Z,10.10
2019-03-20T02:46:21.164Z,9.90
2019-03-20T02:47:21.110Z,10.10
2019-03-20T02:48:21.097Z,9.50
2019-03-20T02:49:21.025Z,9.60
2019-03-20T02:50:20.989Z,9.50
2019-03-20T02:51:20.933Z,9.70
2019-03-20T02:52:20.893Z,9.30
2019-03-20T02:53:20.874Z,9.30
2019-03-20T02:54:20.801Z,8.60
2019-03-20T02:55:20.759Z,8.90
2019-03-20T02:56:20.703Z,9.40
2019-03-20T02:57:20.665Z,9.70
2019-03-20T02:58:20.648Z,9.10
2019-03-20T02:59:20.576Z,8.50
2019-03-20T03:00:20.524Z,9.00
2019-03-20T03:01:20.479Z,8.30
2019-03-20T03:02:20.440Z,8.90
2019-03-20T03:03:20.418Z,9.00
2019-03-20T03:04:20.350Z,8.70
2019-03-20T03:05:20.288Z,8.90
2019-03-20T03:06:20.251Z,8.80
2019-03-20T03:07:20.197Z,8.70
2019-03-20T03:08:20.153Z,9.00
2019-03-20T03:09:20.145Z,8.70
2019-03-20T03:10:20.097Z,8.80
2019-03-20T03:11:20.024Z,8.80
2019-03-20T03:12:19.983Z,8.70
2019-03-20T03:13:19.972Z,8.90
2019-03-20T03:14:19.913Z,8.50
2019-03-20T03:15:19.855Z,8.90
2019-03-20T03:16:19.799Z,8.90
2019-03-20T03:17:19.771Z,8.40
2019-03-20T03:18:19.706Z,8.50
2019-03-20T03:19:19.677Z,8.30
2019-03-20T03:20:19.618Z,9.00
2019-03-20T03:21:19.573Z,8.50
2019-03-20T03:22:19.528Z,8.80
2019-03-20T03:23:19.483Z,8.20
2019-03-20T03:24:19.457Z,8.20
2019-03-20T03:25:19.387Z,8.50
2019-03-20T03:26:19.361Z,8.70
2019-03-20T03:27:19.298Z,8.10
2019-03-20T03:28:19.258Z,8.30
2019-03-20T03:29:19.206Z,8.00
2019-03-20T03:30:19.241Z,8.20
2019-03-20T03:31:19.105Z,7.70
2019-03-20T03:32:19.137Z,8.30
2019-03-20T03:33:19.087Z,8.50
2019-03-20T03:34:19.048Z,8.20
2019-03-20T03:35:19.969Z,8.40
2019-03-20T03:36:21.609Z,8.50
2019-03-20T03:37:18.844Z,8.40
2019-03-20T03:38:18.815Z,8.50
2019-03-20T03:39:18.741Z,8.40
2019-03-20T03:40:18.704Z,8.40
2019-03-20T03:41:18.685Z,8.60
2019-03-20T03:42:18.612Z,8.80
2019-03-20T03:43:18.575Z,8.60
2019-03-20T03:44:18.527Z,8.60
2019-03-20T03:45:18.510Z,8.70
2019-03-20T03:46:18.431Z,8.40
2019-03-20T03:47:18.391Z,8.60
2019-03-20T03:48:18.349Z,8.80
2019-03-20T03:49:18.300Z,8.90
2019-03-20T03:50:18.256Z,9.10
2019-03-20T03:51:18.220Z,8.80
2019-03-20T03:52:18.156Z,9.10
2019-03-20T03:53:18.124Z,8.60
2019-03-20T03:54:18.065Z,9.40
2019-03-20T03:55:18.049Z,9.30
2019-03-20T03:56:18.014Z,9.30
2019-03-20T03:57:17.937Z,9.20
2019-03-20T03:58:17.873Z,9.10
2019-03-20T03:59:17.837Z,8.20
2019-03-20T04:00:17.808Z,8.90
2019-03-20T04:01:17.771Z,8.90
2019-03-20T04:02:17.823Z,8.80
2019-03-20T04:03:17.658Z,9.30
2019-03-20T04:04:17.608Z,9.10
2019-03-20T04:05:17.624Z,8.60
2019-03-20T04:06:17.535Z,9.10
2019-03-20T04:07:17.517Z,8.80
2019-03-20T04:08:17.469Z,8.80
2019-03-20T04:09:17.393Z,9.20
2019-03-20T04:10:17.361Z,9.30
2019-03-20T04:11:17.287Z,8.80
2019-03-20T04:12:17.241Z,9.10
2019-03-20T04:13:17.233Z,8.90
2019-03-20T04:14:17.162Z,9.00
2019-03-20T04:15:17.132Z,9.30
2019-03-20T04:16:17.063Z,9.60
2019-03-20T04:17:17.024Z,8.90
2019-03-20T04:18:16.997Z,9.40
2019-03-20T04:19:16.984Z,8.80
2019-03-20T04:20:16.940Z,9.10
2019-03-20T04:21:16.837Z,8.50
2019-03-20T04:22:16.814Z,8.70
2019-03-20T04:23:16.738Z,9.20
2019-03-20T04:24:16.691Z,8.70
2019-03-20T04:25:16.686Z,8.70
2019-03-20T04:26:16.617Z,8.60
2019-03-20T04:27:16.558Z,8.50
2019-03-20T04:28:16.515Z,8.70
2019-03-20T04:29:16.520Z,8.90
2019-03-20T04:30:16.459Z,9.30
2019-03-20T04:31:16.377Z,8.80
2019-03-20T04:32:16.331Z,9.00
2019-03-20T04:33:16.286Z,9.10
2019-03-20T04:34:16.263Z,9.00
2019-03-20T04:35:16.190Z,9.10
2019-03-20T04:36:16.142Z,9.10
2019-03-20T04:37:16.102Z,8.80
2019-03-20T04:38:16.060Z,9.50
2019-03-20T04:39:16.037Z,9.30
2019-03-20T04:40:15.970Z,9.10
2019-03-20T04:41:15.909Z,9.40
2019-03-20T04:42:15.869Z,8.90
2019-03-20T04:43:15.834Z,8.80
2019-03-20T04:44:15.821Z,8.40
2019-03-20T04:45:15.747Z,8.70
2019-03-20T04:46:15.696Z,8.90
2019-03-20T04:47:15.649Z,8.50
2019-03-20T04:48:15.596Z,8.90
2019-03-20T04:49:15.589Z,8.90
2019-03-20T04:50:15.497Z,8.50
2019-03-20T04:51:15.466Z,8.90
2019-03-20T04:52:15.416Z,9.10
2019-03-20T04:53:15.368Z,9.10
2019-03-20T04:54:15.331Z,8.80
2019-03-20T04:55:15.295Z,8.70
2019-03-20T04:56:15.225Z,8.80
2019-03-20T04:57:15.200Z,8.90
2019-03-20T04:58:15.154Z,8.80
2019-03-20T04:59:15.096Z,9.70
2019-03-20T05:00:15.093Z,8.80
2019-03-20T05:01:15.000Z,9.30
2019-03-20T05:02:14.971Z,8.80
2019-03-20T05:03:14.909Z,8.40
2019-03-20T05:04:14.872Z,8.80
2019-03-20T05:05:14.817Z,8.80
2019-03-20T05:06:14.807Z,9.20
2019-03-20T05:07:14.739Z,8.60
2019-03-20T05:08:14.694Z,9.20
2019-03-20T05:09:14.646Z,9.30
2019-03-20T05:10:14.597Z,8.90
2019-03-20T05:11:14.582Z,9.40
2019-03-20T05:12:14.507Z,8.90
2019-03-20T05:13:14.446Z,8.80
2019-03-20T05:14:14.408Z,9.00
2019-03-20T05:15:14.374Z,8.60
2019-03-20T05:16:14.348Z,9.30
2019-03-20T05:17:14.283Z,8.80
2019-03-20T05:18:14.224Z,9.20
2019-03-20T05:19:14.182Z,9.30
2019-03-20T05:20:14.134Z,8.80
2019-03-20T05:21:14.099Z,9.50
2019-03-20T05:22:14.061Z,9.30
2019-03-20T05:23:14.005Z,9.40
2019-03-20T05:24:13.962Z,8.90
2019-03-20T05:25:13.912Z,9.60
2019-03-20T05:26:13.861Z,9.00
2019-03-20T05:27:13.832Z,9.40
2019-03-20T05:28:13.754Z,8.90
2019-03-20T05:29:13.724Z,8.60
2019-03-20T05:30:13.672Z,9.40
2019-03-20T05:31:13.691Z,8.90
2019-03-20T05:32:13.623Z,9.40
2019-03-20T05:33:13.531Z,9.30
2019-03-20T05:34:13.488Z,9.10
2019-03-20T05:35:13.436Z,9.10
2019-03-20T05:36:13.391Z,9.50
2019-03-20T05:37:13.362Z,9.20
2019-03-20T05:38:13.332Z,9.70
2019-03-20T05:39:15.703Z,9.10
2019-03-20T05:40:13.211Z,9.30
2019-03-20T05:41:13.171Z,8.90
2019-03-20T05:42:13.134Z,9.80
2019-03-20T05:43:13.107Z,10.00
2019-03-20T05:44:13.034Z,9.10
2019-03-20T05:45:12.985Z,9.10
2019-03-20T05:46:12.940Z,10.40
2019-03-20T05:47:12.890Z,9.80
2019-03-20T05:48:12.874Z,9.30
2019-03-20T05:49:12.808Z,9.70
2019-03-20T05:50:12.764Z,9.00
2019-03-20T05:51:12.720Z,8.90
2019-03-20T05:52:12.676Z,9.70
2019-03-20T05:53:12.632Z,9.70
2019-03-20T05:54:12.603Z,9.10
2019-03-20T05:55:12.550Z,8.80
2019-03-20T05:56:12.488Z,8.70
2019-03-20T05:57:12.768Z,9.00
2019-03-20T05:58:12.394Z,8.90
2019-03-20T05:59:12.375Z,9.30
2019-03-20T06:00:12.302Z,9.00
2019-03-20T06:01:12.297Z,9.40
2019-03-20T06:02:12.224Z,9.60
2019-03-20T06:03:12.165Z,8.90
2019-03-20T06:04:12.155Z,8.70
2019-03-20T06:05:12.077Z,8.80
2019-03-20T06:06:12.074Z,8.90
2019-03-20T06:07:21.001Z,8.70
2019-03-20T06:08:11.937Z,9.20
2019-03-20T06:09:11.905Z,8.30
2019-03-20T06:10:11.854Z,8.80
2019-03-20T06:11:11.803Z,8.50
2019-03-20T06:12:11.783Z,8.90
2019-03-20T06:13:11.731Z,9.30
2019-03-20T06:14:11.686Z,8.10
2019-03-20T06:15:11.630Z,8.90
2019-03-20T06:16:11.611Z,9.30
2019-03-20T06:17:11.560Z,9.20
2019-03-20T06:18:11.501Z,8.80
2019-03-20T06:19:20.508Z,9.20
2019-03-20T06:20:11.403Z,9.10
2019-03-20T06:21:11.359Z,9.30
2019-03-20T06:22:11.339Z,9.50
2019-03-20T06:23:11.364Z,9.20
2019-03-20T06:24:11.212Z,8.80
2019-03-20T06:25:11.174Z,8.70
2019-03-20T06:26:11.123Z,8.80
2019-03-20T06:27:11.095Z,9.00
2019-03-20T06:28:11.029Z,8.90
2019-03-20T06:29:10.986Z,8.70
2019-03-20T06:30:10.941Z,8.80
2019-03-20T06:31:10.899Z,9.00
2019-03-20T06:32:10.875Z,8.80
2019-03-20T06:33:10.819Z,9.20
2019-03-20T06:34:10.771Z,8.80
2019-03-20T06:35:10.714Z,9.50
2019-03-20T06:36:10.692Z,9.50
2019-03-20T06:37:10.655Z,8.90
2019-03-20T06:38:10.583Z,9.40
2019-03-20T06:39:10.545Z,9.20
2019-03-20T06:40:10.496Z,8.90
2019-03-20T06:41:10.447Z,9.30
2019-03-20T06:42:10.425Z,8.90
2019-03-20T06:43:10.395Z,8.80
2019-03-20T06:44:10.322Z,9.20
2019-03-20T06:45:10.300Z,8.80
2019-03-20T06:46:10.233Z,8.60
2019-03-20T06:47:10.180Z,8.70
2019-03-20T06:48:10.133Z,9.10
2019-03-20T06:49:10.097Z,9.10
2019-03-20T06:50:10.077Z,9.30
2019-03-20T06:51:10.008Z,8.80
2019-03-20T06:52:09.982Z,9.00
2019-03-20T06:53:09.919Z,8.60
2019-03-20T06:54:09.874Z,9.30
2019-03-20T06:55:09.818Z,8.50
2019-03-20T06:56:09.804Z,8.40
2019-03-20T06:57:09.740Z,9.00
2019-03-20T06:58:09.694Z,8.90
2019-03-20T06:59:09.644Z,8.70
2019-03-20T07:00:09.609Z,9.00
2019-03-20T07:01:09.550Z,9.30
2019-03-20T07:02:09.533Z,8.40
2019-03-20T07:03:09.468Z,8.90
2019-03-20T07:04:09.427Z,8.70
2019-03-20T07:05:09.400Z,8.60
2019-03-20T07:06:09.345Z,8.90
2019-03-20T07:07:09.315Z,9.20
2019-03-20T07:08:09.244Z,8.60
2019-03-20T07:09:09.203Z,8.70
2019-03-20T07:10:09.154Z,9.00
2019-03-20T07:11:09.121Z,8.50
2019-03-20T07:12:09.074Z,8.90
2019-03-20T07:13:09.043Z,8.80
2019-03-20T07:14:08.982Z,8.40
2019-03-20T07:15:08.935Z,9.10
2019-03-20T07:16:08.893Z,8.10
2019-03-20T07:17:08.897Z,8.30
2019-03-20T07:18:08.814Z,8.10
2019-03-20T07:19:08.756Z,7.90
2019-03-20T07:20:08.721Z,8.70
2019-03-20T07:21:08.674Z,8.60
2019-03-20T07:22:08.647Z,8.70
2019-03-20T07:23:08.605Z,8.60
2019-03-20T07:24:08.542Z,8.70
2019-03-20T07:25:08.503Z,8.70
2019-03-20T07:26:08.455Z,8.10
2019-03-20T07:27:08.405Z,8.30
2019-03-20T07:28:08.386Z,8.20
2019-03-20T07:29:08.328Z,8.40
2019-03-20T07:30:08.281Z,8.70
2019-03-20T07:31:15.382Z,8.40
2019-03-20T07:32:08.216Z,8.20
2019-03-20T07:33:08.187Z,8.00
2019-03-20T07:34:08.098Z,8.20
2019-03-20T07:35:08.067Z,8.40
2019-03-20T07:36:08.019Z,8.50
2019-03-20T07:37:08.006Z,7.90
2019-03-20T07:38:07.938Z,8.40
2019-03-20T07:39:07.931Z,8.40
2019-03-20T07:40:08.436Z,8.30
2019-03-20T07:41:07.801Z,7.80
2019-03-20T07:42:07.761Z,8.00
2019-03-20T07:43:09.235Z,8.70
2019-03-20T07:44:07.714Z,8.00
2019-03-20T07:45:07.831Z,8.20
2019-03-20T07:46:07.579Z,8.20
2019-03-20T07:47:07.544Z,8.00
2019-03-20T07:48:07.502Z,8.40
2019-03-20T07:49:07.478Z,8.30
2019-03-20T07:50:07.411Z,8.20
2019-03-20T07:51:07.361Z,8.20
2019-03-20T07:52:07.349Z,8.10
2019-03-20T07:53:07.275Z,8.10
2019-03-20T07:54:07.230Z,8.00
2019-03-20T07:55:07.197Z,8.20
2019-03-20T07:56:07.153Z,8.30
2019-03-20T07:57:07.138Z,8.40
2019-03-20T07:58:07.104Z,8.10
2019-03-20T07:59:07.014Z,8.10
2019-03-20T08:00:07.028Z,8.20
2019-03-20T08:01:06.939Z,8.20
2019-03-20T08:02:06.894Z,8.00
2019-03-20T08:03:06.841Z,7.50
2019-03-20T08:04:06.794Z,8.30
2019-03-20T08:05:06.782Z,8.10
2019-03-20T08:06:06.720Z,8.00
2019-03-20T08:07:06.673Z,8.20
2019-03-20T08:08:07.774Z,8.10
2019-03-20T08:09:06.597Z,8.20
2019-03-20T08:10:06.573Z,8.10
2019-03-20T08:11:06.514Z,8.10
2019-03-20T08:12:06.451Z,8.40
2019-03-20T08:13:06.415Z,8.30
2019-03-20T08:14:06.371Z,8.60
2019-03-20T08:15:06.333Z,8.50
2019-03-20T08:16:06.317Z,8.30
2019-03-20T08:17:06.240Z,8.50
2019-03-20T08:18:06.198Z,8.30
2019-03-20T08:19:06.161Z,9.00
2019-03-20T08:20:06.119Z,8.40
2019-03-20T08:21:06.100Z,8.70
2019-03-20T08:22:06.032Z,8.60
2019-03-20T08:23:05.987Z,8.90
2019-03-20T08:24:05.965Z,8.20
2019-03-20T08:25:05.897Z,7.90
2019-03-20T08:26:05.870Z,8.30
2019-03-20T08:27:05.820Z,8.30
2019-03-20T08:28:05.787Z,7.60
2019-03-20T08:29:05.745Z,8.00
2019-03-20T08:30:05.740Z,8.10
2019-03-20T08:31:05.639Z,8.00
2019-03-20T08:32:05.620Z,8.00
2019-03-20T08:33:05.566Z,7.90
2019-03-20T08:34:05.518Z,8.20
2019-03-20T08:35:05.469Z,8.00
2019-03-20T08:36:05.477Z,8.00
2019-03-20T08:37:05.410Z,7.70
2019-03-20T08:38:05.347Z,8.00
2019-03-20T08:39:05.310Z,8.30
2019-03-20T08:40:05.268Z,8.10
2019-03-20T08:41:05.245Z,8.60
2019-03-20T08:42:05.212Z,8.30
2019-03-20T08:43:05.137Z,7.90
2019-03-20T08:44:05.095Z,8.60
2019-03-20T08:45:05.056Z,7.90
2019-03-20T08:46:05.010Z,8.00
2019-03-20T08:47:05.013Z,7.70
2019-03-20T08:48:04.954Z,8.00
2019-03-20T08:49:04.916Z,7.80
2019-03-20T08:50:04.845Z,7.20
2019-03-20T08:51:04.808Z,7.90
2019-03-20T08:52:04.765Z,7.40
2019-03-20T08:53:04.754Z,7.60
2019-03-20T08:54:04.698Z,7.10
2019-03-20T08:55:04.641Z,7.90
2019-03-20T08:56:04.593Z,7.30
2019-03-20T08:57:04.554Z,7.80
2019-03-20T08:58:04.506Z,7.50
2019-03-20T08:59:04.534Z,7.90
2019-03-20T09:00:04.430Z,7.70
2019-03-20T09:01:04.389Z,7.90
2019-03-20T09:02:04.352Z,7.50
2019-03-20T09:03:04.336Z,7.20
2019-03-20T09:04:04.264Z,7.40
2019-03-20T09:05:04.224Z,7.70
2019-03-20T09:06:04.185Z,7.70
2019-03-20T09:07:04.135Z,7.70
2019-03-20T09:08:04.116Z,7.50
2019-03-20T09:09:04.095Z,7.90
2019-03-20T09:10:04.015Z,7.90
2019-03-20T09:11:03.983Z,7.40
2019-03-20T09:12:03.946Z,7.20
2019-03-20T09:13:03.898Z,6.60
2019-03-20T09:14:03.947Z,6.80
2019-03-20T09:15:03.857Z,6.90
2019-03-20T09:16:03.770Z,7.00
2019-03-20T09:17:03.731Z,7.20
2019-03-20T09:18:03.691Z,7.30
2019-03-20T09:19:03.665Z,6.60
2019-03-20T09:20:03.643Z,7.10
2019-03-20T09:21:03.568Z,7.20
2019-03-20T09:22:03.544Z,6.90
2019-03-20T09:23:03.506Z,6.90
2019-03-20T09:24:03.456Z,6.80
2019-03-20T09:25:03.429Z,7.20
2019-03-20T09:26:03.402Z,7.70
2019-03-20T09:27:03.346Z,7.60
2019-03-20T09:28:03.297Z,6.80
2019-03-20T09:29:03.253Z,7.00
2019-03-20T09:30:03.252Z,7.20
2019-03-20T09:31:03.186Z,7.20
2019-03-20T09:32:03.143Z,7.20
2019-03-20T09:33:03.120Z,7.20
2019-03-20T09:34:03.116Z,7.20
2019-03-20T09:35:03.023Z,7.10
2019-03-20T09:36:03.014Z,7.20
2019-03-20T09:37:02.956Z,6.90
2019-03-20T09:38:02.907Z,7.20
2019-03-20T09:39:02.866Z,6.80
2019-03-20T09:40:02.836Z,7.20
2019-03-20T09:41:02.815Z,7.10
2019-03-20T09:42:02.837Z,7.10
2019-03-20T09:43:02.719Z,7.40
2019-03-20T09:44:02.682Z,6.80
2019-03-20T09:45:02.645Z,6.90
2019-03-20T09:46:02.629Z,6.70
2019-03-20T09:47:02.573Z,6.90
2019-03-20T09:48:02.515Z,6.80
2019-03-20T09:49:02.487Z,7.00
2019-03-20T09:50:02.497Z,7.20
2019-03-20T09:51:02.415Z,7.00
2019-03-20T09:52:02.394Z,7.30
2019-03-20T09:53:02.328Z,7.20
2019-03-20T09:54:02.293Z,7.30
2019-03-20T09:55:02.263Z,7.00
2019-03-20T09:56:02.291Z,7.10
2019-03-20T09:57:02.209Z,7.30
2019-03-20T09:58:11.158Z,7.00
2019-03-20T09:59:02.094Z,6.50
2019-03-20T10:00:02.064Z,6.90
2019-03-20T10:01:02.022Z,7.00
2019-03-20T10:02:02.941Z,7.00
2019-03-20T10:03:01.978Z,7.00
2019-03-20T10:04:01.914Z,7.30
2019-03-20T10:05:01.879Z,6.90
2019-03-20T10:06:01.853Z,9.80
2019-03-20T10:07:01.794Z,8.60
2019-03-20T10:08:01.844Z,7.50
2019-03-20T10:09:02.071Z,6.70
2019-03-20T10:10:01.685Z,6.90
2019-03-20T10:11:01.647Z,6.50
2019-03-20T10:12:01.600Z,7.10
2019-03-20T10:13:01.596Z,7.10
2019-03-20T10:14:01.527Z,6.70
2019-03-20T10:15:01.493Z,6.80
2019-03-20T10:16:01.464Z,7.10
2019-03-20T10:17:01.424Z,6.90
2019-03-20T10:18:01.381Z,6.90
2019-03-20T10:19:01.361Z,6.80
2019-03-20T10:20:01.302Z,7.10
2019-03-20T10:21:01.260Z,7.00
2019-03-20T10:22:01.222Z,6.90
2019-03-20T10:23:01.192Z,7.30
2019-03-20T10:24:01.181Z,6.90
2019-03-20T10:25:01.113Z,7.50
2019-03-20T10:26:01.075Z,7.40
2019-03-20T10:27:01.043Z,7.30
2019-03-20T10:28:00.999Z,7.30
2019-03-20T10:29:00.989Z,6.90
2019-03-20T10:30:00.926Z,7.20
2019-03-20T10:31:00.906Z,7.10
2019-03-20T10:32:00.843Z,6.90
2019-03-20T10:33:00.827Z,6.50
2019-03-20T10:34:00.787Z,6.60
2019-03-20T10:35:00.762Z,7.00
2019-03-20T10:36:00.699Z,6.90
2019-03-20T10:37:00.664Z,6.90
2019-03-20T10:38:00.629Z,6.40
2019-03-20T10:39:06.317Z,6.80
2019-03-20T10:40:00.567Z,6.70
2019-03-20T10:41:00.517Z,6.50
2019-03-20T10:42:00.530Z,6.20
2019-03-20T10:43:00.458Z,6.30
2019-03-20T10:44:00.399Z,6.30
2019-03-20T10:45:00.381Z,6.50
2019-03-20T10:46:00.346Z,6.20
2019-03-20T10:47:00.286Z,6.20
2019-03-20T10:48:00.254Z,6.10
2019-03-20T10:49:00.224Z,6.30
2019-03-20T10:50:00.405Z,6.30
2019-03-20T10:51:00.162Z,6.10
2019-03-20T10:52:00.102Z,6.10
2019-03-20T10:53:00.068Z,6.00
2019-03-20T10:54:00.028Z,5.90
2019-03-20T10:55:00.002Z,6.30
2019-03-20T10:56:00.010Z,6.20
2019-03-20T10:56:59.923Z,6.20
2019-03-20T10:57:59.889Z,6.00
2019-03-20T10:58:59.860Z,6.00
2019-03-20T10:59:59.822Z,6.20
2019-03-20T11:00:59.784Z,6.20
2019-03-20T11:02:00.881Z,6.30
2019-03-20T11:02:59.707Z,6.20
2019-03-20T11:03:59.671Z,6.20
2019-03-20T11:04:59.635Z,5.60
2019-03-20T11:05:59.602Z,6.10
2019-03-20T11:06:59.594Z,6.20
2019-03-20T11:07:59.538Z,5.80
2019-03-20T11:08:59.494Z,6.00
2019-03-20T11:09:59.472Z,5.60
2019-03-20T11:10:59.415Z,5.90
2019-03-20T11:11:59.404Z,6.20
2019-03-20T11:12:59.370Z,6.00
2019-03-20T11:13:59.311Z,5.90
2019-03-20T11:14:59.272Z,5.80
2019-03-20T11:15:59.240Z,6.20
2019-03-20T11:16:59.225Z,6.10
2019-03-20T11:17:59.179Z,5.60
2019-03-20T11:18:59.131Z,6.00
2019-03-20T11:19:59.089Z,5.70
2019-03-20T11:20:59.059Z,5.80
2019-03-20T11:21:59.023Z,6.10
2019-03-20T11:22:59.006Z,6.10
2019-03-20T11:23:58.941Z,5.80
2019-03-20T11:24:58.899Z,5.50
2019-03-20T11:26:00.016Z,6.20
2019-03-20T11:26:58.835Z,5.70
2019-03-20T11:27:58.801Z,5.40
2019-03-20T11:28:58.775Z,5.30
2019-03-20T11:29:58.720Z,5.70
2019-03-20T11:30:58.692Z,5.60
2019-03-20T11:31:58.655Z,6.20
2019-03-20T11:32:58.639Z,6.50
2019-03-20T11:33:58.602Z,6.00
2019-03-20T11:34:58.535Z,5.70
2019-03-20T11:35:58.504Z,6.00
2019-03-20T11:36:58.463Z,6.10
2019-03-20T11:37:58.428Z,6.00
2019-03-20T11:38:58.425Z,6.30
2019-03-20T11:39:58.364Z,6.00
2019-03-20T11:40:58.345Z,5.90
2019-03-20T11:41:58.289Z,6.00
2019-03-20T11:42:58.253Z,5.80
2019-03-20T11:43:58.233Z,5.80
2019-03-20T11:44:58.183Z,6.00
2019-03-20T11:45:58.160Z,5.70
2019-03-20T11:46:58.132Z,6.10
2019-03-20T11:47:58.069Z,5.70
2019-03-20T11:48:58.036Z,5.80
2019-03-20T11:49:58.023Z,6.00
2019-03-20T11:50:57.966Z,5.80
2019-03-20T11:51:57.942Z,6.20
2019-03-20T11:52:57.920Z,6.00
2019-03-20T11:53:57.857Z,6.00
2019-03-20T11:54:57.847Z,5.70
2019-03-20T11:55:57.776Z,6.10
2019-03-20T11:56:57.745Z,6.00
2019-03-20T11:57:57.704Z,5.20
2019-03-20T11:59:07.135Z,5.40
2019-03-20T11:59:57.658Z,5.60
2019-03-20T12:01:06.195Z,5.50
2019-03-20T12:02:06.699Z,5.30
2019-03-20T12:03:06.258Z,5.20
2019-03-20T12:03:57.499Z,5.10
2019-03-20T12:05:06.285Z,5.10
2019-03-20T12:06:06.812Z,5.20
2019-03-20T12:07:06.831Z,5.00
2019-03-20T12:08:06.379Z,4.90
2019-03-20T12:08:57.309Z,5.00
2019-03-20T12:09:58.881Z,5.00
2019-03-20T12:10:58.615Z,5.20
2019-03-20T12:11:57.196Z,4.70
2019-03-20T12:12:57.162Z,4.70
2019-03-20T12:13:57.122Z,4.60
2019-03-20T12:15:06.413Z,4.70
2019-03-20T12:15:57.074Z,4.60
2019-03-20T12:16:57.019Z,4.40
2019-03-20T12:17:57.008Z,4.30
2019-03-20T12:18:56.945Z,4.30
2019-03-20T12:19:56.909Z,4.60
2019-03-20T12:20:56.896Z,4.40
2019-03-20T12:21:56.830Z,4.40
2019-03-20T12:22:56.795Z,4.30
2019-03-20T12:23:56.831Z,4.50
2019-03-20T12:24:56.732Z,4.20
2019-03-20T12:25:56.695Z,4.30
2019-03-20T12:26:56.685Z,4.20
2019-03-20T12:27:56.626Z,4.10
2019-03-20T12:28:59.122Z,4.40
2019-03-20T12:29:56.548Z,4.40
2019-03-20T12:30:56.521Z,4.30
2019-03-20T12:31:56.513Z,4.40
2019-03-20T12:32:56.444Z,3.90
2019-03-20T12:33:56.411Z,3.90
2019-03-20T12:34:56.371Z,4.30
2019-03-20T12:35:56.336Z,4.10
2019-03-20T12:36:56.718Z,3.80
2019-03-20T12:37:56.298Z,4.10
2019-03-20T12:38:56.238Z,4.10
2019-03-20T12:39:56.204Z,3.80
2019-03-20T12:40:56.161Z,3.90
2019-03-20T12:41:56.126Z,3.50
2019-03-20T12:42:56.120Z,3.70
2019-03-20T12:43:56.053Z,3.50
2019-03-20T12:44:56.023Z,3.20
2019-03-20T12:45:55.987Z,2.90
2019-03-20T12:46:55.947Z,2.60
2019-03-20T12:47:55.934Z,2.70
2019-03-20T12:48:55.887Z,2.80
2019-03-20T12:49:55.862Z,2.30
2019-03-20T12:50:55.810Z,2.50
2019-03-20T12:51:55.780Z,2.10
2019-03-20T12:52:55.755Z,2.30
2019-03-20T12:53:55.728Z,2.50
2019-03-20T12:54:55.663Z,2.40
2019-03-20T12:55:55.626Z,2.50
2019-03-20T12:56:55.594Z,2.40
2019-03-20T12:57:55.557Z,2.30
2019-03-20T12:58:55.546Z,2.20
2019-03-20T12:59:55.483Z,2.40
2019-03-20T13:00:55.443Z,2.20
2019-03-20T13:01:55.405Z,2.00
2019-03-20T13:02:55.394Z,1.90
2019-03-20T13:03:55.362Z,2.00
2019-03-20T13:04:55.303Z,2.10
2019-03-20T13:05:55.286Z,1.90
2019-03-20T13:06:55.226Z,2.30
2019-03-20T13:07:58.090Z,2.20
2019-03-20T13:08:55.183Z,2.10
2019-03-20T13:10:03.020Z,2.10
2019-03-20T13:10:55.089Z,1.90
2019-03-20T13:11:55.054Z,2.10
2019-03-20T13:12:55.009Z,2.30
2019-03-20T13:13:54.994Z,2.40
2019-03-20T13:14:54.960Z,2.30
2019-03-20T13:15:54.903Z,2.10
2019-03-20T13:16:54.872Z,2.20